sensor_id;sensor_type;location;lat;lon;timestamp;pressure;altitude;pressure_sealevel;temperature;humidity
59650;BME280;46162;57.568;25.814;2022-08-25T00:00:14;101512.59;;;19.44;100.00
59650;BME280;46162;57.568;25.814;2022-08-25T00:02:43;101494.28;;;19.30;100.00
59650;BME280;46162;57.568;25.814;2022-08-25T00:05:24;101492.59;;;19.29;100.00
59650;BME280;46162;57.568;25.814;2022-08-25T00:07:58;101506.34;;;19.36;100.00
59650;BME280;46162;57.568;25.814;2022-08-25T00:10:29;101517.13;;;19.22;100.00
59650;BME280;46162;57.568;25.814;2022-08-25T00:12:57;101524.97;;;19.10;100.00
59650;BME280;46162;57.568;25.814;2022-08-25T00:15:26;101540.66;;;19.17;100.00
59650;BME280;46162;57.568;25.814;2022-08-25T00:17:55;101533.56;;;19.22;100.00
59650;BME280;46162;57.568;25.814;2022-08-25T00:20:24;101518.94;;;19.15;100.00
59650;BME280;46162;57.568;25.814;2022-08-25T00:22:54;101513.06;;;19.03;100.00
59650;BME280;46162;57.568;25.814;2022-08-25T00:25:23;101495.97;;;19.16;100.00
59650;BME280;46162;57.568;25.814;2022-08-25T00:27:53;101491.84;;;19.20;100.00
59650;BME280;46162;57.568;25.814;2022-08-25T00:30:21;101491.56;;;19.30;100.00
59650;BME280;46162;57.568;25.814;2022-08-25T00:32:50;101485.03;;;19.31;100.00
59650;BME280;46162;57.568;25.814;2022-08-25T00:35:24;101482.66;;;19.28;100.00
59650;BME280;46162;57.568;25.814;2022-08-25T00:37:53;101489.88;;;19.29;100.00
59650;BME280;46162;57.568;25.814;2022-08-25T00:40:24;101492.31;;;19.24;100.00
59650;BME280;46162;57.568;25.814;2022-08-25T00:42:55;101493.16;;;19.09;100.00
59650;BME280;46162;57.568;25.814;2022-08-25T00:45:24;101494.69;;;19.27;100.00
59650;BME280;46162;57.568;25.814;2022-08-25T00:47:53;101483.25;;;19.08;100.00
59650;BME280;46162;57.568;25.814;2022-08-25T00:50:26;101482.78;;;19.20;100.00
59650;BME280;46162;57.568;25.814;2022-08-25T00:52:59;101479.19;;;18.89;100.00
59650;BME280;46162;57.568;25.814;2022-08-25T00:55:33;101471.16;;;18.88;100.00
59650;BME280;46162;57.568;25.814;2022-08-25T00:58:08;101468.88;;;19.06;100.00
59650;BME280;46162;57.568;25.814;2022-08-25T01:00:42;101470.44;;;18.94;100.00
59650;BME280;46162;57.568;25.814;2022-08-25T01:03:12;101467.09;;;18.99;100.00
59650;BME280;46162;57.568;25.814;2022-08-25T01:05:42;101467.03;;;19.07;100.00
59650;BME280;46162;57.568;25.814;2022-08-25T01:08:12;101474.00;;;19.09;100.00
59650;BME280;46162;57.568;25.814;2022-08-25T01:10:43;101480.50;;;19.23;100.00
59650;BME280;46162;57.568;25.814;2022-08-25T01:13:17;101485.41;;;19.13;100.00
59650;BME280;46162;57.568;25.814;2022-08-25T01:15:48;101484.69;;;19.04;100.00
59650;BME280;46162;57.568;25.814;2022-08-25T01:18:21;101486.25;;;19.13;100.00
59650;BME280;46162;57.568;25.814;2022-08-25T01:20:51;101483.44;;;19.07;100.00
59650;BME280;46162;57.568;25.814;2022-08-25T01:23:20;101483.72;;;18.97;100.00
59650;BME280;46162;57.568;25.814;2022-08-25T01:25:55;101474.06;;;18.86;100.00
59650;BME280;46162;57.568;25.814;2022-08-25T01:28:26;101476.25;;;18.91;100.00
59650;BME280;46162;57.568;25.814;2022-08-25T01:30:55;101477.41;;;18.82;100.00
59650;BME280;46162;57.568;25.814;2022-08-25T01:33:24;101480.31;;;18.95;100.00
59650;BME280;46162;57.568;25.814;2022-08-25T01:35:54;101484.28;;;19.07;100.00
59650;BME280;46162;57.568;25.814;2022-08-25T01:38:23;101489.59;;;18.94;100.00
59650;BME280;46162;57.568;25.814;2022-08-25T01:40:51;101499.19;;;18.90;100.00
59650;BME280;46162;57.568;25.814;2022-08-25T01:43:26;101500.88;;;18.91;100.00
59650;BME280;46162;57.568;25.814;2022-08-25T01:45:57;101508.41;;;18.89;100.00
59650;BME280;46162;57.568;25.814;2022-08-25T01:48:26;101495.03;;;18.56;100.00
59650;BME280;46162;57.568;25.814;2022-08-25T01:50:56;101492.75;;;18.83;100.00
59650;BME280;46162;57.568;25.814;2022-08-25T01:53:27;101496.56;;;18.97;100.00
59650;BME280;46162;57.568;25.814;2022-08-25T01:55:59;101491.94;;;18.97;100.00
59650;BME280;46162;57.568;25.814;2022-08-25T01:58:37;101495.63;;;19.04;100.00
59650;BME280;46162;57.568;25.814;2022-08-25T02:01:08;101487.19;;;18.91;100.00
59650;BME280;46162;57.568;25.814;2022-08-25T02:03:39;101494.00;;;18.95;100.00
59650;BME280;46162;57.568;25.814;2022-08-25T02:06:09;101505.09;;;18.79;100.00
59650;BME280;46162;57.568;25.814;2022-08-25T02:08:39;101517.84;;;18.25;100.00
59650;BME280;46162;57.568;25.814;2022-08-25T02:11:10;101543.75;;;18.07;100.00
59650;BME280;46162;57.568;25.814;2022-08-25T02:13:40;101572.03;;;17.91;100.00
59650;BME280;46162;57.568;25.814;2022-08-25T02:16:09;101567.06;;;17.94;100.00
59650;BME280;46162;57.568;25.814;2022-08-25T02:18:43;101584.72;;;17.83;100.00
59650;BME280;46162;57.568;25.814;2022-08-25T02:21:14;101606.38;;;17.85;100.00
59650;BME280;46162;57.568;25.814;2022-08-25T02:23:43;101626.78;;;17.97;100.00
59650;BME280;46162;57.568;25.814;2022-08-25T02:26:12;101604.81;;;17.91;100.00
59650;BME280;46162;57.568;25.814;2022-08-25T02:28:44;101526.44;;;17.91;100.00
59650;BME280;46162;57.568;25.814;2022-08-25T02:31:14;101524.50;;;17.60;100.00
59650;BME280;46162;57.568;25.814;2022-08-25T02:33:43;101525.84;;;17.25;100.00
59650;BME280;46162;57.568;25.814;2022-08-25T02:36:13;101536.75;;;17.33;100.00
59650;BME280;46162;57.568;25.814;2022-08-25T02:38:42;101524.66;;;17.19;100.00
59650;BME280;46162;57.568;25.814;2022-08-25T02:41:13;101500.59;;;17.31;100.00
59650;BME280;46162;57.568;25.814;2022-08-25T02:43:43;101472.56;;;17.37;100.00
59650;BME280;46162;57.568;25.814;2022-08-25T02:46:13;101472.03;;;17.42;100.00
59650;BME280;46162;57.568;25.814;2022-08-25T02:48:42;101467.66;;;17.64;100.00
59650;BME280;46162;57.568;25.814;2022-08-25T02:51:11;101478.75;;;17.31;100.00
59650;BME280;46162;57.568;25.814;2022-08-25T02:53:42;101479.19;;;17.04;100.00
59650;BME280;46162;57.568;25.814;2022-08-25T02:56:13;101472.53;;;17.06;100.00
59650;BME280;46162;57.568;25.814;2022-08-25T02:58:43;101480.16;;;17.19;100.00
59650;BME280;46162;57.568;25.814;2022-08-25T03:01:12;101472.63;;;17.29;100.00
59650;BME280;46162;57.568;25.814;2022-08-25T03:03:43;101485.16;;;17.47;100.00
59650;BME280;46162;57.568;25.814;2022-08-25T03:06:15;101482.47;;;17.38;100.00
59650;BME280;46162;57.568;25.814;2022-08-25T03:08:46;101496.94;;;17.47;100.00
59650;BME280;46162;57.568;25.814;2022-08-25T03:11:16;101501.47;;;17.63;100.00
59650;BME280;46162;57.568;25.814;2022-08-25T03:13:45;101498.41;;;17.58;100.00
59650;BME280;46162;57.568;25.814;2022-08-25T03:16:16;101501.19;;;17.50;100.00
59650;BME280;46162;57.568;25.814;2022-08-25T03:18:46;101498.25;;;17.59;100.00
59650;BME280;46162;57.568;25.814;2022-08-25T03:21:16;101501.06;;;17.74;100.00
59650;BME280;46162;57.568;25.814;2022-08-25T03:23:47;101496.66;;;17.65;100.00
59650;BME280;46162;57.568;25.814;2022-08-25T03:26:16;101497.13;;;17.77;100.00
59650;BME280;46162;57.568;25.814;2022-08-25T03:29:03;101492.78;;;17.59;100.00
59650;BME280;46162;57.568;25.814;2022-08-25T03:31:33;101499.19;;;17.44;100.00
59650;BME280;46162;57.568;25.814;2022-08-25T03:34:02;101504.00;;;17.33;100.00
59650;BME280;46162;57.568;25.814;2022-08-25T03:36:31;101513.47;;;17.46;100.00
59650;BME280;46162;57.568;25.814;2022-08-25T03:39:02;101508.31;;;17.59;100.00
59650;BME280;46162;57.568;25.814;2022-08-25T03:41:31;101515.09;;;17.71;100.00
59650;BME280;46162;57.568;25.814;2022-08-25T03:44:01;101514.19;;;17.79;100.00
59650;BME280;46162;57.568;25.814;2022-08-25T03:46:33;101517.41;;;17.91;100.00
59650;BME280;46162;57.568;25.814;2022-08-25T03:49:03;101517.72;;;17.96;100.00
59650;BME280;46162;57.568;25.814;2022-08-25T03:51:34;101523.56;;;17.45;100.00
59650;BME280;46162;57.568;25.814;2022-08-25T03:54:05;101530.41;;;17.33;100.00
59650;BME280;46162;57.568;25.814;2022-08-25T03:56:35;101530.28;;;17.26;100.00
59650;BME280;46162;57.568;25.814;2022-08-25T03:59:04;101540.88;;;17.21;100.00
59650;BME280;46162;57.568;25.814;2022-08-25T04:01:35;101538.47;;;17.18;100.00
59650;BME280;46162;57.568;25.814;2022-08-25T04:04:05;101534.06;;;17.17;100.00
59650;BME280;46162;57.568;25.814;2022-08-25T04:06:34;101529.78;;;17.23;100.00
59650;BME280;46162;57.568;25.814;2022-08-25T04:09:05;101530.44;;;17.25;100.00
59650;BME280;46162;57.568;25.814;2022-08-25T04:11:34;101526.53;;;17.27;100.00
59650;BME280;46162;57.568;25.814;2022-08-25T04:14:03;101532.69;;;17.21;100.00
59650;BME280;46162;57.568;25.814;2022-08-25T04:16:34;101537.06;;;17.38;100.00
59650;BME280;46162;57.568;25.814;2022-08-25T04:19:03;101531.56;;;17.47;100.00
59650;BME280;46162;57.568;25.814;2022-08-25T04:21:32;101535.84;;;17.49;100.00
59650;BME280;46162;57.568;25.814;2022-08-25T04:24:01;101537.78;;;17.24;100.00
59650;BME280;46162;57.568;25.814;2022-08-25T04:26:34;101545.25;;;17.38;100.00
59650;BME280;46162;57.568;25.814;2022-08-25T04:29:06;101551.69;;;17.46;100.00
59650;BME280;46162;57.568;25.814;2022-08-25T04:31:38;101557.16;;;17.46;100.00
59650;BME280;46162;57.568;25.814;2022-08-25T04:34:07;101554.91;;;17.57;100.00
59650;BME280;46162;57.568;25.814;2022-08-25T04:36:56;101547.91;;;17.63;100.00
59650;BME280;46162;57.568;25.814;2022-08-25T04:39:26;101553.13;;;17.73;100.00
59650;BME280;46162;57.568;25.814;2022-08-25T04:41:56;101555.53;;;17.76;100.00
59650;BME280;46162;57.568;25.814;2022-08-25T04:44:27;101551.41;;;17.88;100.00
59650;BME280;46162;57.568;25.814;2022-08-25T04:46:58;101550.81;;;18.01;100.00
59650;BME280;46162;57.568;25.814;2022-08-25T04:49:27;101554.53;;;18.08;100.00
59650;BME280;46162;57.568;25.814;2022-08-25T04:51:56;101549.00;;;18.16;100.00
59650;BME280;46162;57.568;25.814;2022-08-25T04:54:25;101550.59;;;18.02;100.00
59650;BME280;46162;57.568;25.814;2022-08-25T04:56:55;101546.56;;;18.21;100.00
59650;BME280;46162;57.568;25.814;2022-08-25T04:59:25;101553.63;;;18.16;100.00
59650;BME280;46162;57.568;25.814;2022-08-25T05:01:57;101555.81;;;18.43;100.00
59650;BME280;46162;57.568;25.814;2022-08-25T05:04:29;101551.38;;;18.42;100.00
59650;BME280;46162;57.568;25.814;2022-08-25T05:06:59;101555.75;;;18.52;100.00
59650;BME280;46162;57.568;25.814;2022-08-25T05:09:28;101556.28;;;18.47;100.00
59650;BME280;46162;57.568;25.814;2022-08-25T05:12:00;101546.31;;;18.54;100.00
59650;BME280;46162;57.568;25.814;2022-08-25T05:14:30;101543.53;;;18.62;100.00
59650;BME280;46162;57.568;25.814;2022-08-25T05:16:59;101549.25;;;18.76;100.00
59650;BME280;46162;57.568;25.814;2022-08-25T05:19:28;101553.50;;;18.78;100.00
59650;BME280;46162;57.568;25.814;2022-08-25T05:21:57;101554.09;;;18.88;100.00
59650;BME280;46162;57.568;25.814;2022-08-25T05:24:26;101551.25;;;18.82;100.00
59650;BME280;46162;57.568;25.814;2022-08-25T05:26:55;101552.03;;;19.05;100.00
59650;BME280;46162;57.568;25.814;2022-08-25T05:29:26;101550.97;;;18.91;100.00
59650;BME280;46162;57.568;25.814;2022-08-25T05:31:55;101560.41;;;18.89;100.00
59650;BME280;46162;57.568;25.814;2022-08-25T05:34:24;101558.00;;;18.94;100.00
59650;BME280;46162;57.568;25.814;2022-08-25T05:36:53;101552.22;;;19.04;100.00
59650;BME280;46162;57.568;25.814;2022-08-25T05:39:23;101563.94;;;19.12;100.00
59650;BME280;46162;57.568;25.814;2022-08-25T05:41:53;101558.66;;;19.11;100.00
59650;BME280;46162;57.568;25.814;2022-08-25T05:44:21;101555.59;;;18.91;100.00
59650;BME280;46162;57.568;25.814;2022-08-25T05:46:52;101559.56;;;18.88;100.00
59650;BME280;46162;57.568;25.814;2022-08-25T05:49:20;101557.28;;;18.77;100.00
59650;BME280;46162;57.568;25.814;2022-08-25T05:51:49;101561.53;;;18.80;100.00
59650;BME280;46162;57.568;25.814;2022-08-25T05:54:18;101566.63;;;18.83;100.00
59650;BME280;46162;57.568;25.814;2022-08-25T05:56:47;101572.97;;;18.98;100.00
59650;BME280;46162;57.568;25.814;2022-08-25T05:59:16;101565.97;;;18.81;100.00
59650;BME280;46162;57.568;25.814;2022-08-25T06:01:45;101575.50;;;18.85;100.00
59650;BME280;46162;57.568;25.814;2022-08-25T06:04:31;101574.16;;;18.81;100.00
59650;BME280;46162;57.568;25.814;2022-08-25T06:07:05;101568.44;;;18.90;100.00
59650;BME280;46162;57.568;25.814;2022-08-25T06:09:36;101578.16;;;18.93;100.00
59650;BME280;46162;57.568;25.814;2022-08-25T06:12:06;101581.09;;;19.06;100.00
59650;BME280;46162;57.568;25.814;2022-08-25T06:14:35;101584.97;;;18.97;100.00
59650;BME280;46162;57.568;25.814;2022-08-25T06:17:04;101588.38;;;18.99;100.00
59650;BME280;46162;57.568;25.814;2022-08-25T06:19:34;101581.41;;;19.11;100.00
59650;BME280;46162;57.568;25.814;2022-08-25T06:22:07;101586.41;;;19.08;100.00
59650;BME280;46162;57.568;25.814;2022-08-25T06:24:36;101585.09;;;19.19;100.00
59650;BME280;46162;57.568;25.814;2022-08-25T06:27:05;101592.00;;;19.29;100.00
59650;BME280;46162;57.568;25.814;2022-08-25T06:29:33;101599.47;;;19.36;100.00
59650;BME280;46162;57.568;25.814;2022-08-25T06:32:04;101597.56;;;19.36;100.00
59650;BME280;46162;57.568;25.814;2022-08-25T06:34:34;101594.38;;;19.47;100.00
59650;BME280;46162;57.568;25.814;2022-08-25T06:37:03;101598.34;;;19.45;100.00
59650;BME280;46162;57.568;25.814;2022-08-25T06:39:32;101589.06;;;19.46;100.00
59650;BME280;46162;57.568;25.814;2022-08-25T06:42:01;101601.19;;;19.66;100.00
59650;BME280;46162;57.568;25.814;2022-08-25T06:44:29;101600.34;;;19.66;100.00
59650;BME280;46162;57.568;25.814;2022-08-25T06:46:58;101604.69;;;19.75;100.00
59650;BME280;46162;57.568;25.814;2022-08-25T06:49:28;101599.59;;;19.72;100.00
59650;BME280;46162;57.568;25.814;2022-08-25T06:52:04;101604.69;;;19.75;100.00
59650;BME280;46162;57.568;25.814;2022-08-25T06:54:33;101607.91;;;19.79;100.00
59650;BME280;46162;57.568;25.814;2022-08-25T06:57:02;101608.63;;;19.43;100.00
59650;BME280;46162;57.568;25.814;2022-08-25T06:59:31;101608.56;;;19.66;100.00
59650;BME280;46162;57.568;25.814;2022-08-25T07:02:01;101607.03;;;19.63;100.00
59650;BME280;46162;57.568;25.814;2022-08-25T07:04:31;101603.19;;;19.72;100.00
59650;BME280;46162;57.568;25.814;2022-08-25T07:07:00;101599.50;;;19.80;100.00
59650;BME280;46162;57.568;25.814;2022-08-25T07:09:30;101610.09;;;19.83;100.00
59650;BME280;46162;57.568;25.814;2022-08-25T07:12:06;101605.91;;;19.72;100.00
59650;BME280;46162;57.568;25.814;2022-08-25T07:14:34;101613.38;;;19.64;100.00
59650;BME280;46162;57.568;25.814;2022-08-25T07:17:04;101614.63;;;19.76;100.00
59650;BME280;46162;57.568;25.814;2022-08-25T07:19:38;101617.25;;;19.84;100.00
59650;BME280;46162;57.568;25.814;2022-08-25T07:22:07;101616.03;;;19.72;100.00
59650;BME280;46162;57.568;25.814;2022-08-25T07:24:37;101607.03;;;19.78;100.00
59650;BME280;46162;57.568;25.814;2022-08-25T07:27:06;101614.97;;;19.88;100.00
59650;BME280;46162;57.568;25.814;2022-08-25T07:29:35;101616.41;;;19.98;100.00
59650;BME280;46162;57.568;25.814;2022-08-25T07:32:08;101616.78;;;19.95;100.00
59650;BME280;46162;57.568;25.814;2022-08-25T07:34:37;101623.34;;;20.16;100.00
59650;BME280;46162;57.568;25.814;2022-08-25T07:37:23;101618.63;;;20.10;100.00
59650;BME280;46162;57.568;25.814;2022-08-25T07:40:15;101620.91;;;20.06;100.00
59650;BME280;46162;57.568;25.814;2022-08-25T07:42:45;101615.41;;;20.21;100.00
59650;BME280;46162;57.568;25.814;2022-08-25T07:45:14;101617.09;;;20.22;100.00
59650;BME280;46162;57.568;25.814;2022-08-25T07:47:48;101623.41;;;20.23;100.00
59650;BME280;46162;57.568;25.814;2022-08-25T07:50:18;101626.16;;;20.23;100.00
59650;BME280;46162;57.568;25.814;2022-08-25T07:52:47;101622.69;;;20.14;100.00
59650;BME280;46162;57.568;25.814;2022-08-25T07:55:23;101625.13;;;20.24;100.00
59650;BME280;46162;57.568;25.814;2022-08-25T07:57:53;101621.50;;;20.38;100.00
59650;BME280;46162;57.568;25.814;2022-08-25T08:00:24;101620.78;;;20.51;100.00
59650;BME280;46162;57.568;25.814;2022-08-25T08:02:54;101614.13;;;20.38;100.00
59650;BME280;46162;57.568;25.814;2022-08-25T08:05:24;101630.66;;;19.94;100.00
59650;BME280;46162;57.568;25.814;2022-08-25T08:07:53;101621.63;;;20.15;100.00
59650;BME280;46162;57.568;25.814;2022-08-25T08:10:24;101625.47;;;19.99;100.00
59650;BME280;46162;57.568;25.814;2022-08-25T08:13:13;101615.44;;;20.06;100.00
59650;BME280;46162;57.568;25.814;2022-08-25T08:15:45;101621.09;;;20.05;100.00
59650;BME280;46162;57.568;25.814;2022-08-25T08:18:15;101627.03;;;20.23;100.00
59650;BME280;46162;57.568;25.814;2022-08-25T08:20:45;101626.91;;;20.31;100.00
59650;BME280;46162;57.568;25.814;2022-08-25T08:23:15;101629.47;;;20.33;100.00
59650;BME280;46162;57.568;25.814;2022-08-25T08:25:45;101623.09;;;20.32;100.00
59650;BME280;46162;57.568;25.814;2022-08-25T08:28:14;101622.03;;;20.48;100.00
59650;BME280;46162;57.568;25.814;2022-08-25T08:30:43;101625.63;;;20.49;100.00
59650;BME280;46162;57.568;25.814;2022-08-25T08:33:22;101625.34;;;20.44;100.00
59650;BME280;46162;57.568;25.814;2022-08-25T08:35:59;101632.44;;;20.53;100.00
59650;BME280;46162;57.568;25.814;2022-08-25T08:38:32;101623.31;;;20.52;100.00
59650;BME280;46162;57.568;25.814;2022-08-25T08:41:13;101636.50;;;20.42;100.00
59650;BME280;46162;57.568;25.814;2022-08-25T08:44:26;101631.28;;;20.47;100.00
59650;BME280;46162;57.568;25.814;2022-08-25T08:47:03;101628.53;;;20.62;100.00
59650;BME280;46162;57.568;25.814;2022-08-25T08:49:42;101641.66;;;20.30;100.00
59650;BME280;46162;57.568;25.814;2022-08-25T08:52:15;101637.25;;;20.51;100.00
59650;BME280;46162;57.568;25.814;2022-08-25T08:54:51;101637.81;;;20.61;100.00
59650;BME280;46162;57.568;25.814;2022-08-25T08:57:27;101633.56;;;20.58;100.00
59650;BME280;46162;57.568;25.814;2022-08-25T08:59:59;101637.00;;;20.67;100.00
59650;BME280;46162;57.568;25.814;2022-08-25T09:02:33;101630.38;;;20.76;100.00
59650;BME280;46162;57.568;25.814;2022-08-25T09:05:17;101631.13;;;20.92;100.00
59650;BME280;46162;57.568;25.814;2022-08-25T09:07:49;101628.94;;;21.02;100.00
59650;BME280;46162;57.568;25.814;2022-08-25T09:10:23;101633.50;;;20.95;100.00
59650;BME280;46162;57.568;25.814;2022-08-25T09:13:01;101630.63;;;20.81;100.00
59650;BME280;46162;57.568;25.814;2022-08-25T09:15:44;101627.88;;;20.81;100.00
59650;BME280;46162;57.568;25.814;2022-08-25T09:18:52;101628.94;;;20.80;100.00
59650;BME280;46162;57.568;25.814;2022-08-25T09:21:32;101630.75;;;20.95;100.00
59650;BME280;46162;57.568;25.814;2022-08-25T09:24:13;101629.19;;;21.07;100.00
59650;BME280;46162;57.568;25.814;2022-08-25T09:26:53;101631.28;;;21.05;100.00
59650;BME280;46162;57.568;25.814;2022-08-25T09:29:41;101627.28;;;21.08;100.00
59650;BME280;46162;57.568;25.814;2022-08-25T09:32:15;101631.13;;;21.13;100.00
59650;BME280;46162;57.568;25.814;2022-08-25T09:34:51;101625.13;;;21.03;100.00
59650;BME280;46162;57.568;25.814;2022-08-25T09:37:23;101631.63;;;21.23;100.00
59650;BME280;46162;57.568;25.814;2022-08-25T09:39:54;101624.44;;;21.51;100.00
59650;BME280;46162;57.568;25.814;2022-08-25T09:42:45;101631.06;;;21.56;100.00
59650;BME280;46162;57.568;25.814;2022-08-25T09:45:30;101629.81;;;21.59;100.00
59650;BME280;46162;57.568;25.814;2022-08-25T09:48:00;101635.31;;;21.65;100.00
59650;BME280;46162;57.568;25.814;2022-08-25T09:50:30;101638.28;;;21.64;100.00
59650;BME280;46162;57.568;25.814;2022-08-25T09:53:13;101634.44;;;21.58;100.00
59650;BME280;46162;57.568;25.814;2022-08-25T09:55:54;101633.59;;;21.58;100.00
59650;BME280;46162;57.568;25.814;2022-08-25T09:58:26;101634.94;;;21.75;100.00
59650;BME280;46162;57.568;25.814;2022-08-25T10:01:10;101636.22;;;21.73;100.00
59650;BME280;46162;57.568;25.814;2022-08-25T10:03:55;101629.09;;;21.85;100.00
59650;BME280;46162;57.568;25.814;2022-08-25T10:06:27;101630.06;;;21.71;100.00
59650;BME280;46162;57.568;25.814;2022-08-25T10:09:01;101628.38;;;21.69;100.00
59650;BME280;46162;57.568;25.814;2022-08-25T10:11:35;101624.78;;;21.69;100.00
59650;BME280;46162;57.568;25.814;2022-08-25T10:14:15;101630.53;;;21.46;100.00
59650;BME280;46162;57.568;25.814;2022-08-25T10:16:47;101625.47;;;21.21;100.00
59650;BME280;46162;57.568;25.814;2022-08-25T10:19:24;101628.84;;;21.45;100.00
59650;BME280;46162;57.568;25.814;2022-08-25T10:22:07;101621.25;;;21.47;100.00
59650;BME280;46162;57.568;25.814;2022-08-25T10:24:39;101627.41;;;21.49;100.00
59650;BME280;46162;57.568;25.814;2022-08-25T10:27:22;101625.19;;;21.38;100.00
59650;BME280;46162;57.568;25.814;2022-08-25T10:30:13;101614.88;;;21.40;100.00
59650;BME280;46162;57.568;25.814;2022-08-25T10:32:56;101608.00;;;21.57;100.00
59650;BME280;46162;57.568;25.814;2022-08-25T10:35:34;101608.72;;;21.73;100.00
59650;BME280;46162;57.568;25.814;2022-08-25T10:38:10;101595.06;;;21.86;100.00
59650;BME280;46162;57.568;25.814;2022-08-25T10:40:53;101597.16;;;21.90;100.00
59650;BME280;46162;57.568;25.814;2022-08-25T10:43:31;101597.16;;;21.90;100.00
59650;BME280;46162;57.568;25.814;2022-08-25T10:46:09;101594.91;;;22.01;100.00
59650;BME280;46162;57.568;25.814;2022-08-25T10:48:50;101590.72;;;22.11;100.00
59650;BME280;46162;57.568;25.814;2022-08-25T10:51:40;101593.19;;;22.00;100.00
59650;BME280;46162;57.568;25.814;2022-08-25T10:54:28;101586.66;;;22.01;100.00
59650;BME280;46162;57.568;25.814;2022-08-25T10:57:06;101588.72;;;21.92;100.00
59650;BME280;46162;57.568;25.814;2022-08-25T10:59:49;101579.25;;;22.01;100.00
59650;BME280;46162;57.568;25.814;2022-08-25T11:02:50;101581.09;;;22.42;100.00
59650;BME280;46162;57.568;25.814;2022-08-25T11:05:27;101580.25;;;22.48;100.00
59650;BME280;46162;57.568;25.814;2022-08-25T11:08:05;101581.53;;;22.46;100.00
59650;BME280;46162;57.568;25.814;2022-08-25T11:10:42;101575.41;;;22.50;100.00
59650;BME280;46162;57.568;25.814;2022-08-25T11:13:21;101581.06;;;22.29;100.00
59650;BME280;46162;57.568;25.814;2022-08-25T11:15:54;101584.03;;;22.34;100.00
59650;BME280;46162;57.568;25.814;2022-08-25T11:18:50;101577.16;;;22.10;100.00
59650;BME280;46162;57.568;25.814;2022-08-25T11:21:26;101576.13;;;22.18;100.00
59650;BME280;46162;57.568;25.814;2022-08-25T11:24:09;101576.00;;;22.26;100.00
59650;BME280;46162;57.568;25.814;2022-08-25T11:26:50;101572.84;;;22.36;100.00
59650;BME280;46162;57.568;25.814;2022-08-25T11:29:23;101570.50;;;22.52;100.00
59650;BME280;46162;57.568;25.814;2022-08-25T11:31:53;101568.19;;;22.36;100.00
59650;BME280;46162;57.568;25.814;2022-08-25T11:34:22;101576.22;;;22.31;100.00
59650;BME280;46162;57.568;25.814;2022-08-25T11:36:58;101573.88;;;22.35;100.00
59650;BME280;46162;57.568;25.814;2022-08-25T11:39:54;101578.97;;;22.44;100.00
59650;BME280;46162;57.568;25.814;2022-08-25T11:42:33;101574.72;;;22.28;100.00
59650;BME280;46162;57.568;25.814;2022-08-25T11:45:20;101578.28;;;22.22;100.00
59650;BME280;46162;57.568;25.814;2022-08-25T11:48:09;101581.47;;;22.32;100.00
59650;BME280;46162;57.568;25.814;2022-08-25T11:50:56;101582.56;;;22.45;100.00
59650;BME280;46162;57.568;25.814;2022-08-25T11:53:29;101584.06;;;22.47;100.00
59650;BME280;46162;57.568;25.814;2022-08-25T11:56:00;101578.78;;;22.46;100.00
59650;BME280;46162;57.568;25.814;2022-08-25T11:58:41;101578.97;;;22.44;100.00
59650;BME280;46162;57.568;25.814;2022-08-25T12:04:35;101588.69;;;22.40;100.00
59650;BME280;46162;57.568;25.814;2022-08-25T12:07:26;101585.34;;;22.51;100.00
59650;BME280;46162;57.568;25.814;2022-08-25T12:10:15;101586.59;;;22.36;100.00
59650;BME280;46162;57.568;25.814;2022-08-25T12:13:03;101583.19;;;22.40;100.00
59650;BME280;46162;57.568;25.814;2022-08-25T12:15:57;101578.94;;;22.38;100.00
59650;BME280;46162;57.568;25.814;2022-08-25T12:18:43;101586.59;;;22.49;100.00
59650;BME280;46162;57.568;25.814;2022-08-25T12:21:31;101589.56;;;22.47;100.00
59650;BME280;46162;57.568;25.814;2022-08-25T12:24:08;101594.69;;;22.77;100.00
59650;BME280;46162;57.568;25.814;2022-08-25T12:26:55;101594.25;;;22.67;100.00
59650;BME280;46162;57.568;25.814;2022-08-25T12:29:30;101593.41;;;22.66;100.00
59650;BME280;46162;57.568;25.814;2022-08-25T12:32:34;101597.63;;;22.56;100.00
59650;BME280;46162;57.568;25.814;2022-08-25T12:35:29;101590.88;;;22.58;100.00
59650;BME280;46162;57.568;25.814;2022-08-25T12:38:07;101588.75;;;22.67;100.00
59650;BME280;46162;57.568;25.814;2022-08-25T12:40:52;101590.44;;;22.74;100.00
59650;BME280;46162;57.568;25.814;2022-08-25T12:43:28;101591.50;;;22.73;100.00
59650;BME280;46162;57.568;25.814;2022-08-25T12:46:35;101589.38;;;22.82;100.00
59650;BME280;46162;57.568;25.814;2022-08-25T12:49:29;101578.78;;;22.79;100.00
59650;BME280;46162;57.568;25.814;2022-08-25T12:52:01;101588.78;;;22.80;100.00
59650;BME280;46162;57.568;25.814;2022-08-25T12:54:42;101589.19;;;22.84;100.00
59650;BME280;46162;57.568;25.814;2022-08-25T12:57:32;101589.66;;;23.01;100.00
59650;BME280;46162;57.568;25.814;2022-08-25T13:00:15;101595.53;;;22.84;100.00
59650;BME280;46162;57.568;25.814;2022-08-25T13:03:02;101584.31;;;22.79;100.00
59650;BME280;46162;57.568;25.814;2022-08-25T13:05:51;101592.16;;;22.89;100.00
59650;BME280;46162;57.568;25.814;2022-08-25T13:08:56;101592.78;;;22.71;100.00